createdAt,value
2022-10-23T00:01:45.518Z,96370.21
2022-10-23T00:04:17.725Z,96375.61
2022-10-23T00:06:46.619Z,96378.91
2022-10-23T00:09:17.664Z,96377.41
2022-10-23T00:11:51.028Z,96382.27
2022-10-23T00:14:22.491Z,96387.48
2022-10-23T00:16:50.842Z,96391.84
2022-10-23T00:19:18.857Z,96393.14
2022-10-23T00:21:46.909Z,96394.38
2022-10-23T00:24:15.252Z,96394.75
2022-10-23T00:26:43.713Z,96397.27
2022-10-23T00:29:12.305Z,96398.09
2022-10-23T00:31:40.342Z,96398.61
2022-10-23T00:34:08.937Z,96405.42
2022-10-23T00:36:38.190Z,96407.93
2022-10-23T00:39:06.989Z,96409.42
2022-10-23T00:41:35.132Z,96411.51
2022-10-23T00:44:10.243Z,96411.50
2022-10-23T00:46:40.203Z,96411.48
2022-10-23T00:49:09.894Z,96415.55
2022-10-23T00:51:49.033Z,96414.52
2022-10-23T00:54:24.306Z,96416.50
2022-10-23T00:56:56.172Z,96414.05
2022-10-23T00:59:25.145Z,96406.89
2022-10-23T01:01:53.239Z,96407.31
2022-10-23T01:04:22.682Z,96413.88
2022-10-23T01:06:58.695Z,96416.33
2022-10-23T01:09:31.576Z,96418.86
2022-10-23T01:12:11.846Z,96417.63
2022-10-23T01:14:47.382Z,96425.51
2022-10-23T01:17:44.436Z,96425.27
2022-10-23T01:20:34.595Z,96423.83
2022-10-23T01:23:22.273Z,96423.83
2022-10-23T01:26:27.818Z,96420.73
2022-10-23T01:29:03.512Z,96423.65
2022-10-23T01:31:42.883Z,96431.10
2022-10-23T01:34:16.514Z,96426.18
2022-10-23T01:36:49.271Z,96426.02
2022-10-23T01:39:27.870Z,96425.71
2022-10-23T01:42:24.261Z,96430.80
2022-10-23T01:45:07.173Z,96431.52
2022-10-23T01:47:44.046Z,96433.30
2022-10-23T01:50:15.601Z,96439.09
2022-10-23T01:52:46.532Z,96440.46
2022-10-23T01:55:15.485Z,96437.11
2022-10-23T01:57:46.661Z,96444.74
2022-10-23T02:00:17.837Z,96450.20
2022-10-23T02:02:57.787Z,96450.81
2022-10-23T02:05:32.092Z,96448.79
2022-10-23T02:08:01.525Z,96453.39
2022-10-23T02:10:40.378Z,96453.80
2022-10-23T02:13:21.525Z,96455.30
2022-10-23T02:16:01.988Z,96455.40
2022-10-23T02:18:44.878Z,96458.02
2022-10-23T02:21:17.877Z,96460.23
2022-10-23T02:23:56.897Z,96458.83
2022-10-23T02:26:33.646Z,96462.66
2022-10-23T02:29:15.344Z,96462.34
2022-10-23T02:31:46.094Z,96462.83
2022-10-23T02:34:14.069Z,96461.95
2022-10-23T02:36:42.866Z,96464.27
2022-10-23T02:39:11.257Z,96470.23
2022-10-23T02:41:42.592Z,96471.16
2022-10-23T02:44:31.363Z,96470.52
2022-10-23T02:47:23.606Z,96475.11
2022-10-23T02:50:11.241Z,96477.70
2022-10-23T02:52:54.095Z,96482.95
2022-10-23T02:55:54.170Z,96484.67
2022-10-23T02:58:39.334Z,96487.82
2022-10-23T03:01:18.087Z,96492.05
2022-10-23T03:03:53.532Z,96491.59
2022-10-23T03:06:22.941Z,96495.56
2022-10-23T03:08:58.200Z,96494.69
2022-10-23T03:11:26.822Z,96497.66
2022-10-23T03:13:56.371Z,96497.88
2022-10-23T03:16:24.724Z,96502.48
2022-10-23T03:18:55.441Z,96504.73
2022-10-23T03:21:24.354Z,96503.90
2022-10-23T03:23:54.088Z,96506.92
2022-10-23T03:26:28.862Z,96508.39
2022-10-23T03:28:56.950Z,96511.70
2022-10-23T03:31:25.002Z,96512.98
2022-10-23T03:33:56.610Z,96514.27
2022-10-23T03:36:24.913Z,96514.37
2022-10-23T03:38:53.959Z,96514.42
2022-10-23T03:41:22.225Z,96509.98
2022-10-23T03:43:50.244Z,96518.33
2022-10-23T03:46:18.170Z,96519.23
2022-10-23T03:48:46.251Z,96522.89
2022-10-23T03:51:14.362Z,96526.34
2022-10-23T03:53:42.310Z,96528.84
2022-10-23T03:56:10.389Z,96530.55
2022-10-23T03:58:38.363Z,96527.67
2022-10-23T04:01:06.347Z,96528.88
2022-10-23T04:03:34.350Z,96523.91
2022-10-23T04:06:02.448Z,96521.64
2022-10-23T04:08:30.570Z,96519.92
2022-10-23T04:10:58.894Z,96512.66
2022-10-23T04:13:43.159Z,96514.81
2022-10-23T04:16:11.356Z,96514.27
2022-10-23T04:18:42.256Z,96515.74
2022-10-23T04:21:12.087Z,96511.86
2022-10-23T04:23:40.236Z,96515.63
2022-10-23T04:26:13.863Z,96516.77
2022-10-23T04:28:41.974Z,96518.55
2022-10-23T04:31:10.582Z,96519.95
2022-10-23T04:33:41.940Z,96518.21
2022-10-23T04:36:10.775Z,96521.92
2022-10-23T04:38:40.461Z,96527.13
2022-10-23T04:41:08.651Z,96527.39
2022-10-23T04:43:36.996Z,96525.95
2022-10-23T04:46:05.936Z,96520.14
2022-10-23T04:48:35.617Z,96518.92
2022-10-23T04:51:41.783Z,96516.09
2022-10-23T04:54:37.876Z,96515.40
2022-10-23T04:57:24.566Z,96513.61
2022-10-23T05:00:14.963Z,96514.02
2022-10-23T05:02:50.823Z,96516.72
2022-10-23T05:05:19.195Z,96516.31
2022-10-23T05:07:57.496Z,96522.41
2022-10-23T05:10:31.525Z,96519.02
2022-10-23T05:13:07.632Z,96519.50
2022-10-23T05:15:35.921Z,96513.38
2022-10-23T05:18:13.397Z,96510.86
2022-10-23T05:20:45.105Z,96512.49
2022-10-23T05:23:16.751Z,96509.27
2022-10-23T05:25:53.660Z,96511.81
2022-10-23T05:28:22.886Z,96510.89
2022-10-23T05:30:51.295Z,96511.11
2022-10-23T05:33:19.855Z,96513.23
2022-10-23T05:35:50.984Z,96509.45
2022-10-23T05:38:19.465Z,96512.89
2022-10-23T05:40:47.688Z,96507.55
2022-10-23T05:43:18.976Z,96509.27
2022-10-23T05:46:07.778Z,96506.36
2022-10-23T05:48:51.085Z,96509.11
2022-10-23T05:51:39.522Z,96508.95
2022-10-23T05:54:27.756Z,96510.39
2022-10-23T05:59:51.526Z,96514.73
2022-10-23T06:02:42.935Z,96514.72
2022-10-23T06:05:35.910Z,96511.70
2022-10-23T06:08:20.071Z,96513.44
2022-10-23T06:10:50.031Z,96513.83
2022-10-23T06:13:18.097Z,96515.23
2022-10-23T06:15:46.398Z,96518.25
2022-10-23T06:18:20.857Z,96519.45
2022-10-23T06:21:05.368Z,96517.34
2022-10-23T06:23:35.448Z,96519.43
2022-10-23T06:26:29.455Z,96519.45
2022-10-23T06:29:06.748Z,96529.30
2022-10-23T06:31:35.039Z,96525.14
2022-10-23T06:34:06.164Z,96527.25
2022-10-23T06:36:34.453Z,96528.82
2022-10-23T06:39:21.277Z,96532.73
2022-10-23T06:42:07.888Z,96538.68
2022-10-23T06:45:06.252Z,96544.42
2022-10-23T06:47:54.193Z,96548.27
2022-10-23T06:50:42.467Z,96545.95
2022-10-23T06:53:13.625Z,96549.94
2022-10-23T06:55:50.022Z,96552.16
2022-10-23T06:58:21.201Z,96552.71
2022-10-23T07:01:13.006Z,96554.70
2022-10-23T07:03:42.654Z,96557.73
2022-10-23T07:06:11.592Z,96560.07
2022-10-23T07:08:40.457Z,96559.41
2022-10-23T07:11:34.839Z,96560.80
2022-10-23T07:14:03.028Z,96568.60
2022-10-23T07:16:32.151Z,96565.75
2022-10-23T07:19:02.028Z,96568.80
2022-10-23T07:21:35.247Z,96570.59
2022-10-23T07:24:17.446Z,96569.52
2022-10-23T07:26:45.775Z,96565.79
2022-10-23T07:29:15.234Z,96564.17
2022-10-23T07:31:43.626Z,96560.48
2022-10-23T07:34:27.877Z,96561.44
2022-10-23T07:37:12.306Z,96561.04
2022-10-23T07:39:40.387Z,96563.15
2022-10-23T07:42:10.235Z,96570.35
2022-10-23T07:44:38.283Z,96575.34
2022-10-23T07:47:06.463Z,96576.61
2022-10-23T07:49:34.681Z,96575.15
2022-10-23T07:52:05.471Z,96573.34
2022-10-23T07:54:43.059Z,96574.66
2022-10-23T07:57:21.600Z,96573.67
2022-10-23T08:02:58.024Z,96581.20
2022-10-23T08:05:26.353Z,96577.92
2022-10-23T08:07:58.856Z,96569.35
2022-10-23T08:10:26.983Z,96564.30
2022-10-23T08:12:55.190Z,96559.29
2022-10-23T08:15:32.107Z,96559.60
2022-10-23T08:18:04.632Z,96560.23
2022-10-23T08:20:48.118Z,96569.71
2022-10-23T08:23:18.627Z,96573.52
2022-10-23T08:25:47.191Z,96567.98
2022-10-23T08:28:16.669Z,96567.42
2022-10-23T08:30:52.513Z,96565.02
2022-10-23T08:33:20.869Z,96564.49
2022-10-23T08:35:49.302Z,96565.93
2022-10-23T08:38:20.673Z,96564.50
2022-10-23T08:40:49.682Z,96566.92
2022-10-23T08:43:57.011Z,96569.93
2022-10-23T08:46:42.356Z,96576.45
2022-10-23T08:49:54.077Z,96577.36
2022-10-23T08:52:25.523Z,96576.79
2022-10-23T08:54:58.195Z,96582.61
2022-10-23T08:57:39.993Z,96577.60
2022-10-23T09:00:18.483Z,96574.38
2022-10-23T09:02:49.821Z,96573.06
2022-10-23T09:05:20.863Z,96575.17
2022-10-23T09:08:17.857Z,96578.11
2022-10-23T09:11:07.471Z,96582.59
2022-10-23T09:13:38.551Z,96586.42
2022-10-23T09:16:22.947Z,96583.96
2022-10-23T09:18:52.337Z,96582.26
2022-10-23T09:21:22.014Z,96583.20
2022-10-23T09:23:49.960Z,96585.23
2022-10-23T09:26:19.234Z,96589.48
2022-10-23T09:28:53.073Z,96595.73
2022-10-23T09:31:21.173Z,96597.16
2022-10-23T09:34:01.171Z,96593.25
2022-10-23T09:36:29.935Z,96596.29
2022-10-23T09:39:00.448Z,96596.52
2022-10-23T09:41:28.389Z,96593.69
2022-10-23T09:44:08.765Z,96592.23
2022-10-23T09:46:38.105Z,96591.79
2022-10-23T09:49:08.035Z,96591.47
2022-10-23T09:51:42.038Z,96589.89
2022-10-23T09:54:16.852Z,96589.27
2022-10-23T09:59:24.169Z,96587.33
2022-10-23T10:01:58.318Z,96584.86
2022-10-23T10:04:55.824Z,96582.73
2022-10-23T10:07:27.345Z,96579.79
2022-10-23T10:09:56.888Z,96579.02
2022-10-23T10:12:53.299Z,96576.62
2022-10-23T10:15:31.744Z,96576.55
2022-10-23T10:18:22.996Z,96581.58
2022-10-23T10:21:20.888Z,96584.40
2022-10-23T10:24:13.838Z,96581.23
2022-10-23T10:27:11.877Z,96575.82
2022-10-23T10:29:48.982Z,96578.11
2022-10-23T10:32:20.541Z,96577.17
2022-10-23T10:35:14.985Z,96579.26
2022-10-23T10:37:57.400Z,96573.70
2022-10-23T10:40:43.746Z,96573.92
2022-10-23T10:43:39.561Z,96565.73
2022-10-23T10:46:43.120Z,96566.55
2022-10-23T10:49:19.942Z,96558.10
2022-10-23T10:52:11.176Z,96554.08
2022-10-23T10:54:57.937Z,96551.11
2022-10-23T10:57:44.332Z,96550.27
2022-10-23T11:00:18.908Z,96547.66
2022-10-23T11:03:09.686Z,96546.36
2022-10-23T11:05:46.785Z,96540.23
2022-10-23T11:08:40.199Z,96535.23
2022-10-23T11:11:38.007Z,96539.85
2022-10-23T11:14:14.672Z,96532.73
2022-10-23T11:16:48.260Z,96530.73
2022-10-23T11:19:25.708Z,96526.23
2022-10-23T11:21:59.573Z,96522.57
2022-10-23T11:24:58.521Z,96524.70
2022-10-23T11:27:31.701Z,96521.05
2022-10-23T11:30:21.366Z,96520.78
2022-10-23T11:32:51.931Z,96513.27
2022-10-23T11:35:57.467Z,96509.63
2022-10-23T11:38:30.467Z,96509.39
2022-10-23T11:41:02.702Z,96504.33
2022-10-23T11:43:48.655Z,96501.23
2022-10-23T11:46:26.495Z,96500.67
2022-10-23T11:48:56.209Z,96495.70
2022-10-23T11:51:31.686Z,96489.31
2022-10-23T11:54:12.216Z,96485.27
2022-10-23T11:57:08.076Z,96481.85
2022-10-23T11:59:41.371Z,96478.30
2022-10-23T12:02:36.931Z,96478.90
2022-10-23T12:05:25.415Z,96475.59
2022-10-23T12:07:59.446Z,96473.20
2022-10-23T12:10:31.298Z,96474.27
2022-10-23T12:13:02.007Z,96476.34
2022-10-23T12:15:32.535Z,96469.42
2022-10-23T12:18:29.930Z,96464.93
2022-10-23T12:21:00.223Z,96458.70
2022-10-23T12:24:00.506Z,96452.13
2022-10-23T12:26:50.653Z,96446.43
2022-10-23T12:29:37.001Z,96436.90
2022-10-23T12:32:04.840Z,96433.59
2022-10-23T12:34:51.754Z,96434.78
2022-10-23T12:37:29.144Z,96437.64
2022-10-23T12:39:59.290Z,96434.05
2022-10-23T12:42:29.701Z,96430.65
2022-10-23T12:44:59.909Z,96432.14
2022-10-23T12:47:30.168Z,96432.27
2022-10-23T12:49:58.220Z,96434.83
2022-10-23T12:52:26.332Z,96437.50
2022-10-23T12:54:54.362Z,96436.91
2022-10-23T12:57:26.564Z,96430.15
2022-10-23T13:00:11.136Z,96431.61
2022-10-23T13:02:39.255Z,96436.75
2022-10-23T13:05:13.435Z,96436.89
2022-10-23T13:07:46.392Z,96443.08
2022-10-23T13:10:20.123Z,96435.80
2022-10-23T13:13:07.009Z,96431.70
2022-10-23T13:15:45.152Z,96424.86
2022-10-23T13:18:15.011Z,96421.23
2022-10-23T13:20:56.820Z,96419.23
2022-10-23T13:23:33.299Z,96417.77
2022-10-23T13:26:02.687Z,96418.83
2022-10-23T13:28:43.939Z,96416.00
2022-10-23T13:31:12.580Z,96412.41
2022-10-23T13:33:48.090Z,96410.27
2022-10-23T13:36:16.819Z,96416.27
2022-10-23T13:38:46.221Z,96421.55
2022-10-23T13:41:21.471Z,96421.23
2022-10-23T13:43:49.578Z,96423.59
2022-10-23T13:46:23.352Z,96420.73
2022-10-23T13:48:51.924Z,96420.98
2022-10-23T13:51:25.437Z,96423.39
2022-10-23T13:53:55.452Z,96428.96
2022-10-23T13:56:25.589Z,96435.76
2022-10-23T13:58:53.973Z,96433.09
2022-10-23T14:01:32.695Z,96426.31
2022-10-23T14:04:00.952Z,96423.23
2022-10-23T14:06:28.826Z,96417.08
2022-10-23T14:08:57.362Z,96412.45
2022-10-23T14:11:25.993Z,96405.91
2022-10-23T14:13:54.035Z,96403.88
2022-10-23T14:16:22.468Z,96404.83
2022-10-23T14:18:50.489Z,96407.91
2022-10-23T14:21:20.693Z,96413.85
2022-10-23T14:23:50.438Z,96409.84
2022-10-23T14:26:22.201Z,96410.91
2022-10-23T14:28:53.187Z,96406.63
2022-10-23T14:31:21.993Z,96409.07
2022-10-23T14:33:56.205Z,96403.02
2022-10-23T14:36:28.244Z,96401.45
2022-10-23T14:39:02.798Z,96405.36
2022-10-23T14:41:30.755Z,96402.09
2022-10-23T14:43:58.808Z,96404.27
2022-10-23T14:46:28.155Z,96401.08
2022-10-23T14:48:59.877Z,96398.25
2022-10-23T14:51:32.201Z,96403.19
2022-10-23T14:54:02.562Z,96402.36
2022-10-23T14:56:33.395Z,96400.94
2022-10-23T14:59:04.800Z,96400.45
2022-10-23T15:01:36.106Z,96398.11
2022-10-23T15:04:04.853Z,96398.11
2022-10-23T15:06:33.749Z,96400.92
2022-10-23T15:09:03.068Z,96398.02
2022-10-23T15:11:31.771Z,96396.34
2022-10-23T15:14:00.727Z,96395.59
2022-10-23T15:16:28.786Z,96394.91
2022-10-23T15:18:56.940Z,96397.49
2022-10-23T15:21:25.315Z,96396.91
2022-10-23T15:23:54.873Z,96399.84
2022-10-23T15:26:24.071Z,96403.20
2022-10-23T15:28:57.685Z,96399.75
2022-10-23T15:31:43.579Z,96394.69
2022-10-23T15:34:16.422Z,96394.45
2022-10-23T15:36:47.121Z,96396.20
2022-10-23T15:39:18.112Z,96398.86
2022-10-23T15:41:47.344Z,96397.38
2022-10-23T15:44:17.637Z,96400.31
2022-10-23T15:46:45.870Z,96399.60
2022-10-23T15:49:14.117Z,96396.95
2022-10-23T15:51:42.812Z,96397.82
2022-10-23T15:54:16.766Z,96395.56
2022-10-23T15:56:50.457Z,96396.71
2022-10-23T15:59:21.052Z,96394.82
2022-10-23T16:01:50.027Z,96397.65
2022-10-23T16:04:18.370Z,96405.99
2022-10-23T16:06:46.763Z,96400.50
2022-10-23T16:09:15.840Z,96398.08
2022-10-23T16:11:44.451Z,96401.35
2022-10-23T16:14:15.122Z,96406.10
2022-10-23T16:16:43.210Z,96408.45
2022-10-23T16:19:12.149Z,96405.60
2022-10-23T16:21:40.447Z,96410.23
2022-10-23T16:24:09.146Z,96409.53
2022-10-23T16:26:37.939Z,96411.37
2022-10-23T16:29:08.132Z,96415.18
2022-10-23T16:31:36.707Z,96419.23
2022-10-23T16:34:05.568Z,96422.06
2022-10-23T16:36:34.568Z,96423.06
2022-10-23T16:39:15.413Z,96423.06
2022-10-23T16:42:02.115Z,96429.04
2022-10-23T16:44:53.342Z,96427.02
2022-10-23T16:47:21.425Z,96431.93
2022-10-23T16:49:49.419Z,96435.14
2022-10-23T16:52:17.444Z,96443.48
2022-10-23T16:54:45.561Z,96445.02
2022-10-23T16:57:13.600Z,96442.88
2022-10-23T16:59:41.589Z,96435.61
2022-10-23T17:02:11.888Z,96434.61
2022-10-23T17:04:40.613Z,96438.64
2022-10-23T17:07:08.809Z,96443.15
2022-10-23T17:09:38.621Z,96447.80
2022-10-23T17:12:07.012Z,96451.84
2022-10-23T17:14:35.034Z,96449.98
2022-10-23T17:17:03.800Z,96449.67
2022-10-23T17:19:44.135Z,96456.52
2022-10-23T17:22:13.469Z,96451.32
2022-10-23T17:24:42.592Z,96448.41
2022-10-23T17:27:10.922Z,96451.61
2022-10-23T17:29:39.490Z,96453.34
2022-10-23T17:32:08.276Z,96450.77
2022-10-23T17:34:36.453Z,96453.21
2022-10-23T17:37:05.059Z,96449.98
2022-10-23T17:39:33.110Z,96453.73
2022-10-23T17:42:01.050Z,96447.77
2022-10-23T17:44:29.396Z,96443.15
2022-10-23T17:46:57.439Z,96445.77
2022-10-23T17:49:25.816Z,96442.11
2022-10-23T17:51:55.873Z,96434.19
2022-10-23T17:54:26.486Z,96436.01
2022-10-23T17:56:55.573Z,96438.92
2022-10-23T17:59:23.727Z,96439.42
2022-10-23T18:01:51.934Z,96443.14
2022-10-23T18:04:21.416Z,96444.13
2022-10-23T18:06:53.069Z,96432.19
2022-10-23T18:09:22.751Z,96423.80
2022-10-23T18:11:52.876Z,96419.98
2022-10-23T18:14:21.740Z,96416.08
2022-10-23T18:16:52.634Z,96417.02
2022-10-23T18:19:20.833Z,96411.15
2022-10-23T18:21:49.869Z,96409.66
2022-10-23T18:24:18.992Z,96411.15
2022-10-23T18:26:48.379Z,96408.48
2022-10-23T18:29:17.597Z,96405.95
2022-10-23T18:31:48.385Z,96405.14
2022-10-23T18:34:22.013Z,96403.06
2022-10-23T18:36:51.991Z,96404.13
2022-10-23T18:39:22.819Z,96403.45
2022-10-23T18:41:53.427Z,96404.89
2022-10-23T18:44:22.936Z,96407.87
2022-10-23T18:46:51.971Z,96409.14
2022-10-23T18:49:20.449Z,96408.58
2022-10-23T18:51:50.220Z,96406.89
2022-10-23T18:54:20.558Z,96408.48
2022-10-23T18:56:48.813Z,96406.14
2022-10-23T18:59:20.157Z,96405.79
2022-10-23T19:01:49.210Z,96402.61
2022-10-23T19:04:18.589Z,96398.85
2022-10-23T19:06:49.520Z,96400.94
2022-10-23T19:09:18.096Z,96402.90
2022-10-23T19:11:46.297Z,96395.94
2022-10-23T19:14:14.625Z,96389.39
2022-10-23T19:17:23.328Z,96387.13
2022-10-23T19:19:59.704Z,96392.13
2022-10-23T19:22:30.146Z,96392.34
2022-10-23T19:25:05.628Z,96393.17
2022-10-23T19:27:33.711Z,96386.00
2022-10-23T19:30:05.211Z,96377.27
2022-10-23T19:32:33.612Z,96374.96
2022-10-23T19:35:01.731Z,96370.90
2022-10-23T19:37:29.890Z,96366.40
2022-10-23T19:39:58.537Z,96370.66
2022-10-23T19:42:26.451Z,96371.00
2022-10-23T19:44:54.586Z,96373.98
2022-10-23T19:47:22.812Z,96376.41
2022-10-23T19:49:52.015Z,96371.80
2022-10-23T19:52:22.334Z,96370.40
2022-10-23T19:54:51.367Z,96374.83
2022-10-23T19:57:22.499Z,96373.13
2022-10-23T19:59:52.925Z,96370.57
2022-10-23T20:02:22.108Z,96373.22
2022-10-23T20:04:51.477Z,96370.88
2022-10-23T20:07:19.527Z,96372.54
2022-10-23T20:09:47.668Z,96376.91
2022-10-23T20:12:15.781Z,96382.11
2022-10-23T20:14:44.412Z,96378.28
2022-10-23T20:17:12.434Z,96381.64
2022-10-23T20:19:40.557Z,96381.55
2022-10-23T20:22:08.569Z,96376.74
2022-10-23T20:24:36.651Z,96375.25
2022-10-23T20:27:04.604Z,96369.98
2022-10-23T20:29:32.594Z,96362.64
2022-10-23T20:32:00.640Z,96357.95
2022-10-23T20:34:28.674Z,96352.70
2022-10-23T20:36:56.666Z,96346.88
2022-10-23T20:39:25.775Z,96348.34
2022-10-23T20:41:57.060Z,96347.41
2022-10-23T20:44:25.027Z,96344.79
2022-10-23T20:46:53.384Z,96345.70
2022-10-23T20:49:22.689Z,96351.48
2022-10-23T20:51:55.158Z,96353.02
2022-10-23T20:54:25.823Z,96353.47
2022-10-23T20:56:53.827Z,96346.94
2022-10-23T20:59:21.925Z,96349.05
2022-10-23T21:01:53.486Z,96343.17
2022-10-23T21:04:25.088Z,96336.94
2022-10-23T21:07:09.427Z,96337.17
2022-10-23T21:09:38.750Z,96334.83
2022-10-23T21:12:07.313Z,96334.78
2022-10-23T21:14:36.241Z,96340.51
2022-10-23T21:17:05.250Z,96338.33
2022-10-23T21:19:33.213Z,96331.40
2022-10-23T21:22:04.319Z,96327.21
2022-10-23T21:24:32.351Z,96321.73
2022-10-23T21:27:00.402Z,96314.30
2022-10-23T21:29:28.406Z,96314.53
2022-10-23T21:31:59.398Z,96314.43
2022-10-23T21:34:28.341Z,96314.17
2022-10-23T21:37:13.404Z,96316.02
2022-10-23T21:39:43.578Z,96317.08
2022-10-23T21:42:12.953Z,96322.99
2022-10-23T21:44:40.907Z,96329.16
2022-10-23T21:47:08.953Z,96330.04
2022-10-23T21:49:37.273Z,96328.28
2022-10-23T21:52:05.263Z,96324.45
2022-10-23T21:54:33.351Z,96324.42
2022-10-23T21:57:03.333Z,96318.41
2022-10-23T21:59:35.571Z,96317.64
2022-10-23T22:02:04.377Z,96317.55
2022-10-23T22:04:32.891Z,96316.21
2022-10-23T22:07:03.148Z,96321.98
2022-10-23T22:09:32.341Z,96326.61
2022-10-23T22:12:01.169Z,96325.85
2022-10-23T22:14:29.311Z,96321.64
2022-10-23T22:16:58.691Z,96322.91
2022-10-23T22:19:26.948Z,96315.52
2022-10-23T22:21:55.579Z,96303.22
2022-10-23T22:24:23.911Z,96296.59
2022-10-23T22:26:54.636Z,96292.02
2022-10-23T22:29:27.589Z,96297.63
2022-10-23T22:31:56.791Z,96295.34
2022-10-23T22:37:17.194Z,96281.90
2022-10-23T22:39:45.284Z,96278.15
2022-10-23T22:42:13.361Z,96273.98
2022-10-23T22:44:41.425Z,96270.27
2022-10-23T22:47:09.614Z,96264.96
2022-10-23T22:49:38.565Z,96264.08
2022-10-23T22:52:06.677Z,96259.79
2022-10-23T22:54:34.841Z,96254.76
2022-10-23T22:57:02.875Z,96257.40
2022-10-23T22:59:30.888Z,96258.55
2022-10-23T23:01:58.860Z,96257.35
2022-10-23T23:04:43.094Z,96258.70
2022-10-23T23:07:12.784Z,96262.50
2022-10-23T23:09:44.089Z,96265.58
2022-10-23T23:12:14.187Z,96264.61
2022-10-23T23:14:43.354Z,96262.13
2022-10-23T23:17:12.178Z,96265.80
2022-10-23T23:19:40.288Z,96268.13
2022-10-23T23:22:08.568Z,96257.48
2022-10-23T23:24:36.651Z,96259.35
2022-10-23T23:27:04.678Z,96253.35
2022-10-23T23:29:32.798Z,96253.39
2022-10-23T23:32:00.946Z,96252.03
2022-10-23T23:34:29.464Z,96257.02
2022-10-23T23:36:57.889Z,96254.16
2022-10-23T23:39:26.477Z,96255.79
2022-10-23T23:41:54.852Z,96247.59
2022-10-23T23:44:23.070Z,96242.77
2022-10-23T23:46:51.139Z,96239.44
2022-10-23T23:49:19.112Z,96238.89
2022-10-23T23:51:47.267Z,96238.68
2022-10-23T23:54:15.505Z,96237.80
2022-10-23T23:56:43.519Z,96240.61
2022-10-23T23:59:11.558Z,96236.98
